createdAt,value
2019-05-05T00:02:15.560Z,79.33
2019-05-05T00:04:49.684Z,78.71
2019-05-05T00:07:25.373Z,80.17
2019-05-05T00:09:58.306Z,80.24
2019-05-05T00:12:41.420Z,78.70
2019-05-05T00:15:16.308Z,78.70
2019-05-05T00:17:49.160Z,80.75
2019-05-05T00:20:21.670Z,80.75
2019-05-05T00:22:56.513Z,81.17
2019-05-05T00:25:28.903Z,80.49
2019-05-05T00:28:01.775Z,80.58
2019-05-05T00:30:34.461Z,80.86
2019-05-05T00:33:07.301Z,81.80
2019-05-05T00:35:39.982Z,81.54
2019-05-05T00:38:14.309Z,81.54
2019-05-05T00:40:47.339Z,80.83
2019-05-05T00:43:21.635Z,82.04
2019-05-05T00:45:55.850Z,81.51
2019-05-05T00:48:48.220Z,81.70
2019-05-05T00:51:21.443Z,81.46
2019-05-05T00:53:55.480Z,82.06
2019-05-05T00:56:28.321Z,81.99
2019-05-05T00:59:04.478Z,81.59
2019-05-05T01:01:55.277Z,81.59
2019-05-05T01:04:45.598Z,81.85
2019-05-05T01:07:18.298Z,81.98
2019-05-05T01:09:51.719Z,81.79
2019-05-05T01:12:24.536Z,82.50
2019-05-05T01:14:56.981Z,81.47
2019-05-05T01:17:29.531Z,82.11
2019-05-05T01:20:04.579Z,80.62
2019-05-05T01:22:36.600Z,82.45
2019-05-05T01:25:10.315Z,82.63
2019-05-05T01:27:45.160Z,80.55
2019-05-05T01:30:24.444Z,82.82
2019-05-05T01:33:11.351Z,83.20
2019-05-05T01:35:44.905Z,83.26
2019-05-05T01:38:31.474Z,83.26
2019-05-05T01:41:10.641Z,84.32
2019-05-05T01:43:45.262Z,83.98
2019-05-05T01:46:18.821Z,83.33
2019-05-05T01:48:54.913Z,83.83
2019-05-05T01:51:27.663Z,83.86
2019-05-05T01:54:00.293Z,85.57
2019-05-05T01:56:35.086Z,85.88
2019-05-05T01:59:07.288Z,85.88
2019-05-05T02:01:39.565Z,86.65
2019-05-05T02:04:14.289Z,86.65
2019-05-05T02:06:46.335Z,84.42
2019-05-05T02:09:24.951Z,85.63
2019-05-05T02:11:57.586Z,85.63
2019-05-05T02:14:30.273Z,85.35
2019-05-05T02:17:01.791Z,84.22
2019-05-05T02:19:36.841Z,85.17
2019-05-05T02:22:09.538Z,86.12
2019-05-05T02:24:44.249Z,86.33
2019-05-05T02:27:49.357Z,85.81
2019-05-05T02:30:26.633Z,84.78
2019-05-05T02:32:59.639Z,83.43
2019-05-05T02:35:35.147Z,83.72
2019-05-05T02:38:07.502Z,83.47
2019-05-05T02:40:41.503Z,83.16
2019-05-05T02:43:15.048Z,83.71
2019-05-05T02:46:20.866Z,82.25
2019-05-05T02:48:56.664Z,82.35
2019-05-05T02:51:31.397Z,81.05
2019-05-05T02:54:08.462Z,82.01
2019-05-05T02:56:45.444Z,82.01
2019-05-05T02:59:23.836Z,82.19
2019-05-05T03:02:07.287Z,81.96
2019-05-05T03:04:39.711Z,80.83
2019-05-05T03:07:15.453Z,80.83
2019-05-05T03:09:51.352Z,81.00
2019-05-05T03:12:26.322Z,81.46
2019-05-05T03:15:00.104Z,81.46
2019-05-05T03:17:34.081Z,81.98
2019-05-05T03:20:10.990Z,81.90
2019-05-05T03:22:45.366Z,81.85
2019-05-05T03:25:17.984Z,81.36
2019-05-05T03:27:50.517Z,81.36
2019-05-05T03:30:26.030Z,81.39
2019-05-05T03:32:57.777Z,82.23
2019-05-05T03:35:30.402Z,82.23
2019-05-05T03:38:05.092Z,81.78
2019-05-05T03:40:39.325Z,81.78
2019-05-05T03:43:14.514Z,81.91
2019-05-05T03:45:50.800Z,81.45
2019-05-05T03:48:24.286Z,81.45
2019-05-05T03:50:58.756Z,81.53
2019-05-05T03:53:33.763Z,81.53
2019-05-05T03:56:06.858Z,81.41
2019-05-05T03:58:39.465Z,80.87
2019-05-05T04:01:51.351Z,80.83
2019-05-05T04:04:33.438Z,81.93
2019-05-05T04:07:07.289Z,81.93
2019-05-05T04:09:39.852Z,79.50
2019-05-05T04:12:14.295Z,79.50
2019-05-05T04:14:47.869Z,79.40
2019-05-05T04:17:21.231Z,79.40
2019-05-05T04:20:03.655Z,78.51
2019-05-05T04:22:35.527Z,78.57
2019-05-05T04:25:08.842Z,78.60
2019-05-05T04:27:41.297Z,78.98
2019-05-05T04:30:14.371Z,79.73
2019-05-05T04:32:47.018Z,79.73
2019-05-05T04:35:24.469Z,78.77
2019-05-05T04:37:56.609Z,78.18
2019-05-05T04:40:29.000Z,77.94
2019-05-05T04:43:01.348Z,78.45
2019-05-05T04:45:34.688Z,77.76
2019-05-05T04:48:13.656Z,77.76
2019-05-05T04:50:47.442Z,78.47
2019-05-05T04:53:21.455Z,79.48
2019-05-05T04:55:53.809Z,78.66
2019-05-05T04:58:29.280Z,78.85
2019-05-05T05:01:01.679Z,78.76
2019-05-05T05:03:43.773Z,78.76
2019-05-05T05:06:17.699Z,79.34
2019-05-05T05:08:53.609Z,78.13
2019-05-05T05:11:26.285Z,77.95
2019-05-05T05:14:00.296Z,77.86
2019-05-05T05:16:35.738Z,77.53
2019-05-05T05:19:08.286Z,77.53
2019-05-05T05:21:40.822Z,76.69
2019-05-05T05:24:14.651Z,76.69
2019-05-05T05:26:47.279Z,75.68
2019-05-05T05:29:19.606Z,76.56
2019-05-05T05:31:53.573Z,76.56
2019-05-05T05:34:26.240Z,75.94
2019-05-05T05:36:58.506Z,75.01
2019-05-05T05:39:44.445Z,75.57
2019-05-05T05:42:18.449Z,74.95
2019-05-05T05:44:53.520Z,74.73
2019-05-05T05:47:33.871Z,73.98
2019-05-05T05:50:14.310Z,74.78
2019-05-05T05:52:47.297Z,74.50
2019-05-05T05:55:20.304Z,72.62
2019-05-05T05:57:54.332Z,71.66
2019-05-05T06:00:27.037Z,68.32
2019-05-05T06:03:00.295Z,68.32
2019-05-05T06:05:34.289Z,66.57
2019-05-05T06:08:07.037Z,66.57
2019-05-05T06:10:39.455Z,68.08
2019-05-05T06:13:14.882Z,67.24
2019-05-05T06:15:46.379Z,68.58
2019-05-05T06:18:18.823Z,67.38
2019-05-05T06:20:51.374Z,67.38
2019-05-05T06:23:24.278Z,67.25
2019-05-05T06:25:56.552Z,69.14
2019-05-05T06:30:34.304Z,69.78
2019-05-05T06:33:07.033Z,69.20
2019-05-05T06:35:39.447Z,69.20
2019-05-05T06:38:13.468Z,68.89
2019-05-05T06:41:04.177Z,70.06
2019-05-05T06:43:44.149Z,69.85
2019-05-05T06:46:31.453Z,71.07
2019-05-05T06:49:04.341Z,70.42
2019-05-05T06:51:37.034Z,69.88
2019-05-05T06:54:10.043Z,69.49
2019-05-05T06:56:44.524Z,69.23
2019-05-05T06:59:17.274Z,69.20
2019-05-05T07:01:49.646Z,69.03
2019-05-05T07:04:24.540Z,69.03
2019-05-05T07:06:57.649Z,70.35
2019-05-05T07:09:30.294Z,69.46
2019-05-05T07:12:04.595Z,67.50
2019-05-05T07:14:36.667Z,67.82
2019-05-05T07:17:09.287Z,67.82
2019-05-05T07:19:44.993Z,67.97
2019-05-05T07:22:17.900Z,66.45
2019-05-05T07:24:50.334Z,66.45
2019-05-05T07:30:13.705Z,66.53
2019-05-05T07:32:46.295Z,67.15
2019-05-05T07:35:24.654Z,67.44
2019-05-05T07:37:57.292Z,66.36
2019-05-05T07:40:29.833Z,66.75
2019-05-05T07:43:04.356Z,66.75
2019-05-05T07:45:37.057Z,64.77
2019-05-05T07:48:09.726Z,64.12
2019-05-05T07:50:45.044Z,64.39
2019-05-05T07:53:17.967Z,62.32
2019-05-05T07:55:50.821Z,61.74
2019-05-05T07:58:25.142Z,61.74
2019-05-05T08:00:59.818Z,61.81
2019-05-05T08:03:33.898Z,62.03
2019-05-05T08:06:08.345Z,61.23
2019-05-05T08:08:44.334Z,60.77
2019-05-05T08:11:16.949Z,60.77
2019-05-05T08:13:49.566Z,60.92
2019-05-05T08:16:39.581Z,60.61
2019-05-05T08:19:29.345Z,58.95
2019-05-05T08:22:03.742Z,59.21
2019-05-05T08:24:54.522Z,59.21
2019-05-05T08:27:27.285Z,58.98
2019-05-05T08:30:05.218Z,57.53
2019-05-05T08:32:39.607Z,57.53
2019-05-05T08:35:14.679Z,57.92
2019-05-05T08:37:46.874Z,57.05
2019-05-05T08:40:20.297Z,56.48
2019-05-05T08:42:53.913Z,55.67
2019-05-05T08:45:26.852Z,55.67
2019-05-05T08:47:59.406Z,54.92
2019-05-05T08:50:32.050Z,54.44
2019-05-05T08:53:06.749Z,53.23
2019-05-05T08:55:39.038Z,51.49
2019-05-05T08:58:11.811Z,51.49
2019-05-05T09:00:44.985Z,51.71
2019-05-05T09:03:17.665Z,52.05
2019-05-05T09:05:50.295Z,50.22
2019-05-05T09:08:24.130Z,48.54
2019-05-05T09:10:57.076Z,48.54
2019-05-05T09:13:29.705Z,47.08
2019-05-05T09:16:03.738Z,48.45
2019-05-05T09:18:38.294Z,47.99
2019-05-05T09:21:11.064Z,46.43
2019-05-05T09:23:58.957Z,46.17
2019-05-05T09:26:30.774Z,46.83
2019-05-05T09:29:21.303Z,45.44
2019-05-05T09:31:54.368Z,47.27
2019-05-05T09:34:26.826Z,49.09
2019-05-05T09:37:03.158Z,49.09
2019-05-05T09:39:36.298Z,45.42
2019-05-05T09:42:09.080Z,45.83
2019-05-05T09:44:43.623Z,45.83
2019-05-05T09:47:15.096Z,45.93
2019-05-05T09:49:47.364Z,45.27
2019-05-05T09:52:20.695Z,46.22
2019-05-05T09:54:55.852Z,45.10
2019-05-05T09:57:27.689Z,45.10
2019-05-05T10:00:01.894Z,45.28
2019-05-05T10:02:34.965Z,45.64
2019-05-05T10:05:10.273Z,45.64
2019-05-05T10:07:44.059Z,44.79
2019-05-05T10:10:19.329Z,44.12
2019-05-05T10:12:52.954Z,43.66
2019-05-05T10:15:26.371Z,43.66
2019-05-05T10:17:59.024Z,41.93
2019-05-05T10:20:31.707Z,41.93
2019-05-05T10:23:04.538Z,40.77
2019-05-05T10:25:41.529Z,41.85
2019-05-05T10:28:14.289Z,42.96
2019-05-05T10:30:47.305Z,42.38
2019-05-05T10:33:19.779Z,41.19
2019-05-05T10:35:54.113Z,41.19
2019-05-05T10:38:27.306Z,40.30
2019-05-05T10:40:59.688Z,39.27
2019-05-05T10:43:34.346Z,39.27
2019-05-05T10:46:07.350Z,39.76
2019-05-05T10:48:40.030Z,39.62
2019-05-05T10:51:12.916Z,38.32
2019-05-05T10:53:45.534Z,38.32
2019-05-05T10:56:18.350Z,39.38
2019-05-05T10:58:51.305Z,39.64
2019-05-05T11:01:24.334Z,38.86
2019-05-05T11:03:56.595Z,38.86
2019-05-05T11:06:29.400Z,38.59
2019-05-05T11:09:04.326Z,37.32
2019-05-05T11:11:37.411Z,36.91
2019-05-05T11:14:10.522Z,38.54
2019-05-05T11:16:44.512Z,37.63
2019-05-05T11:19:17.479Z,37.21
2019-05-05T11:21:50.442Z,37.41
2019-05-05T11:24:24.660Z,39.40
2019-05-05T11:26:57.383Z,38.61
2019-05-05T11:29:30.569Z,38.93
2019-05-05T11:32:05.311Z,40.30
2019-05-05T11:34:39.299Z,38.59
2019-05-05T11:37:13.367Z,37.74
2019-05-05T11:39:45.884Z,38.17
2019-05-05T11:42:19.293Z,38.17
2019-05-05T11:44:54.102Z,36.93
2019-05-05T11:47:27.356Z,36.93
2019-05-05T11:50:00.504Z,37.65
2019-05-05T11:52:33.732Z,37.61
2019-05-05T11:55:11.494Z,37.97
2019-05-05T11:57:41.298Z,38.86
2019-05-05T12:00:14.465Z,41.31
2019-05-05T12:02:47.304Z,40.71
2019-05-05T12:05:24.386Z,41.61
2019-05-05T12:07:57.308Z,41.70
2019-05-05T12:10:29.651Z,41.61
2019-05-05T12:13:04.333Z,42.72
2019-05-05T12:17:38.435Z,46.56
2019-05-05T12:20:13.599Z,49.50
2019-05-05T12:22:46.506Z,67.48
2019-05-05T12:25:37.020Z,75.56
2019-05-05T12:28:10.682Z,86.61
2019-05-05T12:30:44.404Z,89.34
2019-05-05T12:33:17.336Z,86.37
2019-05-05T12:35:49.945Z,79.64
2019-05-05T12:38:24.120Z,79.64
2019-05-05T12:40:58.217Z,70.89
2019-05-05T12:43:31.040Z,60.85
2019-05-05T12:46:20.785Z,56.20
2019-05-05T12:48:54.896Z,45.97
2019-05-05T12:51:28.655Z,43.30
2019-05-05T12:54:01.298Z,41.97
2019-05-05T12:56:34.183Z,40.92
2019-05-05T12:59:09.115Z,38.07
2019-05-05T13:01:44.140Z,36.59
2019-05-05T13:04:18.441Z,33.57
2019-05-05T13:06:51.126Z,33.57
2019-05-05T13:09:24.489Z,35.20
2019-05-05T13:11:57.803Z,35.74
2019-05-05T13:14:30.505Z,40.55
2019-05-05T13:17:03.659Z,36.88
2019-05-05T13:19:38.293Z,34.59
2019-05-05T13:22:18.497Z,31.17
2019-05-05T13:25:09.282Z,31.17
2019-05-05T13:27:43.394Z,27.93
2019-05-05T13:30:16.436Z,27.93
2019-05-05T13:32:49.011Z,30.87
2019-05-05T13:35:23.500Z,28.57
2019-05-05T13:37:57.839Z,30.83
2019-05-05T13:40:43.972Z,30.83
2019-05-05T13:43:21.291Z,34.03
2019-05-05T13:45:58.655Z,28.65
2019-05-05T13:48:31.317Z,29.64
2019-05-05T13:51:05.361Z,30.22
2019-05-05T13:53:38.455Z,30.22
2019-05-05T13:56:12.578Z,28.58
2019-05-05T13:58:45.293Z,28.25
2019-05-05T14:01:17.786Z,26.90
2019-05-05T14:03:54.167Z,26.90
2019-05-05T14:06:27.826Z,29.14
2019-05-05T14:09:00.702Z,31.40
2019-05-05T14:11:35.336Z,34.43
2019-05-05T14:14:07.236Z,34.43
2019-05-05T14:16:39.811Z,36.61
2019-05-05T14:19:11.512Z,36.61
2019-05-05T14:21:44.648Z,38.60
2019-05-05T14:24:19.196Z,36.58
2019-05-05T14:26:51.666Z,37.11
2019-05-05T14:29:42.624Z,37.11
2019-05-05T14:32:16.771Z,36.29
2019-05-05T14:34:51.265Z,36.51
2019-05-05T14:37:28.307Z,35.21
2019-05-05T14:40:00.760Z,33.11
2019-05-05T14:42:34.829Z,33.11
2019-05-05T14:45:09.578Z,34.27
2019-05-05T14:47:44.137Z,34.58
2019-05-05T14:50:18.327Z,34.85
2019-05-05T14:52:53.450Z,32.55
2019-05-05T14:55:25.580Z,31.25
2019-05-05T14:57:58.348Z,31.25
2019-05-05T15:00:31.296Z,27.57
2019-05-05T15:03:04.344Z,27.57
2019-05-05T15:05:36.562Z,27.18
2019-05-05T15:08:27.054Z,24.52
2019-05-05T15:11:17.327Z,22.03
2019-05-05T15:13:51.439Z,21.45
2019-05-05T15:16:24.477Z,21.34
2019-05-05T15:18:58.595Z,19.02
2019-05-05T15:21:33.974Z,18.26
2019-05-05T15:24:07.573Z,16.93
2019-05-05T15:26:51.315Z,17.26
2019-05-05T15:29:14.358Z,15.86
2019-05-05T15:31:53.880Z,14.85
2019-05-05T15:34:24.277Z,14.85
2019-05-05T15:36:58.647Z,13.64
2019-05-05T15:39:31.042Z,13.63
2019-05-05T15:42:04.716Z,14.90
2019-05-05T15:44:37.334Z,12.93
2019-05-05T15:47:09.607Z,17.16
2019-05-05T15:49:43.913Z,17.16
2019-05-05T15:52:16.487Z,16.73
2019-05-05T15:54:49.041Z,15.79
2019-05-05T15:57:21.437Z,17.12
2019-05-05T15:59:54.290Z,17.25
2019-05-05T16:02:28.806Z,17.67
2019-05-05T16:05:01.292Z,18.54
2019-05-05T16:07:33.399Z,19.02
2019-05-05T16:10:16.268Z,18.69
2019-05-05T16:12:48.808Z,20.26
2019-05-05T16:15:30.524Z,21.56
2019-05-05T16:18:13.749Z,22.23
2019-05-05T16:20:50.632Z,24.07
2019-05-05T16:23:24.662Z,24.34
2019-05-05T16:25:57.292Z,25.68
2019-05-05T16:29:18.680Z,29.73
2019-05-05T16:31:51.313Z,28.21
2019-05-05T16:34:23.803Z,29.83
2019-05-05T16:36:57.005Z,29.83
2019-05-05T16:40:33.868Z,29.86
2019-05-05T16:43:06.638Z,30.59
2019-05-05T16:45:39.291Z,29.32
2019-05-05T16:48:13.315Z,29.21
2019-05-05T16:50:46.384Z,29.23
2019-05-05T16:53:38.413Z,29.19
2019-05-05T16:56:16.332Z,29.19
2019-05-05T16:58:48.800Z,30.00
2019-05-05T17:01:22.629Z,30.00
2019-05-05T17:04:07.691Z,29.48
2019-05-05T17:06:29.626Z,30.25
2019-05-05T17:09:04.506Z,30.49
2019-05-05T17:11:37.507Z,31.12
2019-05-05T17:14:16.456Z,32.15
2019-05-05T17:16:56.710Z,32.93
2019-05-05T17:19:33.886Z,32.89
2019-05-05T17:22:08.310Z,33.36
2019-05-05T17:24:45.305Z,34.32
2019-05-05T17:27:17.776Z,34.83
2019-05-05T17:29:50.514Z,34.83
2019-05-05T17:32:24.918Z,34.71
2019-05-05T17:34:57.551Z,35.01
2019-05-05T17:37:30.302Z,35.65
2019-05-05T17:40:04.533Z,36.85
2019-05-05T17:42:38.564Z,36.85
2019-05-05T17:45:14.363Z,36.67
2019-05-05T17:47:48.539Z,37.40
2019-05-05T17:50:28.603Z,37.97
2019-05-05T17:53:11.781Z,37.67
2019-05-05T17:55:44.492Z,38.27
2019-05-05T17:58:17.329Z,39.54
2019-05-05T18:00:54.617Z,38.46
2019-05-05T18:03:27.370Z,38.46
2019-05-05T18:06:11.395Z,39.34
2019-05-05T18:08:48.344Z,39.43
2019-05-05T18:11:28.018Z,39.43
2019-05-05T18:14:03.935Z,40.32
2019-05-05T18:16:36.887Z,40.50
2019-05-05T18:19:09.362Z,40.97
2019-05-05T18:21:43.778Z,41.30
2019-05-05T18:24:17.775Z,41.30
2019-05-05T18:26:50.321Z,43.29
2019-05-05T18:29:24.254Z,43.17
2019-05-05T18:31:56.907Z,45.28
2019-05-05T18:34:30.427Z,45.91
2019-05-05T18:37:03.769Z,47.58
2019-05-05T18:39:36.417Z,47.56
2019-05-05T18:42:10.454Z,49.22
2019-05-05T18:44:47.363Z,49.40
2019-05-05T18:47:21.482Z,52.64
2019-05-05T18:49:58.649Z,52.64
2019-05-05T18:52:31.609Z,51.14
2019-05-05T18:55:12.823Z,52.31
2019-05-05T18:57:46.313Z,53.20
2019-05-05T19:00:24.330Z,52.48
2019-05-05T19:03:17.533Z,53.94
2019-05-05T19:05:43.904Z,53.94
2019-05-05T19:08:24.334Z,54.67
2019-05-05T19:10:56.934Z,54.57
2019-05-05T19:13:30.681Z,55.03
2019-05-05T19:16:03.655Z,55.91
2019-05-05T19:18:37.456Z,57.23
2019-05-05T19:21:19.592Z,56.05
2019-05-05T19:23:54.180Z,55.63
2019-05-05T19:26:27.513Z,55.74
2019-05-05T19:29:02.335Z,55.74
2019-05-05T19:31:43.803Z,56.09
2019-05-05T19:34:16.505Z,56.09
2019-05-05T19:36:49.057Z,56.01
2019-05-05T19:39:24.300Z,54.40
2019-05-05T19:41:57.040Z,54.42
2019-05-05T19:44:30.873Z,58.28
2019-05-05T19:47:06.305Z,58.28
2019-05-05T19:49:40.539Z,60.00
2019-05-05T19:52:13.620Z,60.00
2019-05-05T19:54:47.538Z,60.80
2019-05-05T19:57:20.312Z,61.60
2019-05-05T19:59:54.300Z,61.40
2019-05-05T20:02:26.803Z,61.40
2019-05-05T20:05:01.301Z,62.60
2019-05-05T20:07:34.309Z,62.60
2019-05-05T20:10:08.347Z,62.04
2019-05-05T20:12:43.824Z,62.81
2019-05-05T20:15:17.320Z,62.81
2019-05-05T20:17:49.711Z,63.58
2019-05-05T20:20:22.328Z,63.58
2019-05-05T20:22:54.784Z,64.63
2019-05-05T20:25:27.374Z,64.71
2019-05-05T20:28:01.359Z,64.92
2019-05-05T20:30:34.332Z,65.16
2019-05-05T20:33:16.658Z,65.16
2019-05-05T20:35:59.861Z,65.98
2019-05-05T20:38:37.207Z,66.78
2019-05-05T20:41:11.328Z,66.39
2019-05-05T20:43:44.858Z,67.12
2019-05-05T20:46:17.268Z,67.12
2019-05-05T20:48:49.612Z,67.28
2019-05-05T20:51:24.132Z,67.12
2019-05-05T20:53:55.587Z,67.80
2019-05-05T20:56:28.536Z,67.94
2019-05-05T20:59:01.308Z,69.00
2019-05-05T21:01:34.282Z,69.23
2019-05-05T21:04:07.311Z,69.23
2019-05-05T21:06:39.769Z,69.94
2019-05-05T21:09:14.218Z,69.94
2019-05-05T21:11:46.586Z,70.53
2019-05-05T21:14:31.163Z,70.64
2019-05-05T21:16:54.697Z,70.97
2019-05-05T21:19:27.360Z,70.68
2019-05-05T21:22:04.233Z,69.55
2019-05-05T21:24:36.813Z,71.65
2019-05-05T21:27:09.395Z,71.65
2019-05-05T21:29:42.466Z,72.29
2019-05-05T21:32:15.295Z,72.29
2019-05-05T21:34:48.347Z,73.19
2019-05-05T21:37:21.298Z,73.19
2019-05-05T21:39:55.152Z,73.77
2019-05-05T21:42:28.066Z,73.77
2019-05-05T21:45:01.420Z,73.81
2019-05-05T21:47:34.520Z,74.30
2019-05-05T21:50:10.527Z,74.94
2019-05-05T21:52:47.532Z,75.63
2019-05-05T21:55:24.675Z,76.44
2019-05-05T21:58:13.493Z,76.71
2019-05-05T22:00:48.711Z,76.94
2019-05-05T22:03:34.556Z,77.60
2019-05-05T22:06:08.321Z,78.09
2019-05-05T22:08:41.292Z,78.41
2019-05-05T22:11:14.802Z,77.61
2019-05-05T22:13:47.807Z,77.61
2019-05-05T22:16:20.531Z,78.72
2019-05-05T22:18:54.290Z,78.79
2019-05-05T22:21:36.003Z,79.52
2019-05-05T22:24:16.201Z,79.17
2019-05-05T22:26:49.098Z,79.48
2019-05-05T22:29:24.872Z,80.45
2019-05-05T22:31:57.129Z,80.45
2019-05-05T22:34:29.427Z,80.09
2019-05-05T22:37:05.395Z,80.13
2019-05-05T22:39:36.443Z,80.70
2019-05-05T22:42:09.286Z,79.95
2019-05-05T22:44:41.679Z,80.15
2019-05-05T22:47:14.363Z,80.15
2019-05-05T22:49:46.717Z,80.74
2019-05-05T22:52:19.304Z,80.74
2019-05-05T22:54:51.686Z,81.84
2019-05-05T22:57:24.712Z,81.84
2019-05-05T22:59:57.532Z,81.94
2019-05-05T23:02:34.003Z,82.19
2019-05-05T23:05:10.300Z,82.08
2019-05-05T23:07:43.829Z,81.46
2019-05-05T23:10:16.279Z,82.51
2019-05-05T23:12:48.552Z,82.41
2019-05-05T23:15:20.261Z,82.96
2019-05-05T23:17:55.490Z,82.95
2019-05-05T23:20:53.953Z,83.08
2019-05-05T23:23:44.103Z,83.79
2019-05-05T23:26:27.503Z,82.95
2019-05-05T23:29:00.063Z,83.74
2019-05-05T23:31:33.569Z,83.63
2019-05-05T23:34:07.495Z,84.14
2019-05-05T23:36:39.935Z,84.27
2019-05-05T23:39:13.594Z,84.30
2019-05-05T23:41:46.339Z,84.17
2019-05-05T23:44:19.044Z,84.06
2019-05-05T23:46:53.572Z,84.06
2019-05-05T23:49:25.806Z,84.21
2019-05-05T23:51:59.553Z,84.76
2019-05-05T23:54:34.113Z,85.05
2019-05-05T23:57:06.719Z,85.59
2019-05-05T23:59:39.366Z,85.60
